Terminal Aerodrome Forecast
Issued by NWS Huntsville, AL

Home | Current Version | Previous Version | Text Only | Print | Product List | Glossary On
Versions: 1 2 3 4 5 6 7 8 9 10 11 12 13
000
FTUS44 KHUN 121510 AAA
TAFMSL
TAF AMD
KMSL 121510Z 1215/1312 31012KT P6SM OVC040
     FM121630 32014G22KT P6SM BKN040
     FM122000 33012G20KT P6SM SCT040
     FM130100 31005KT P6SM SKC=

USA.gov is the U.S. government's official web portal to all federal, state and local government web resources and services.